Airfield :
LOGIN :

Register | Disclaimer

   EN    FR    IT 

 










Legend :    VFR   Marginal VFR   IFR   Intensive IFR   Very Intensive IFR
Visi :
Ceiling :
>= 8 km
>= 3000ft
5 to 8 km
1000 to 3000 ft
1500m to 5 km
500 to 1000 ft
800 to 1500m
200 to 500 ft
< 800m
< 200 ft
Symbols :   Thunderstorms  Fog  Heavy snow  Heavy precipitations  Wind > 20 kt
SIGMETs :     Misc.  Thunderstorms  Icing  Turbulence  Mountain Waves  Volcanic Ashes







- Airport Elevation : 238 ft
- IATA code : FAB
- Download approach charts


EGLF - Farnborough

CURRENT METAR :
  • 262350Z AUTO 04011KT 9999 OVC014/// 14/11 Q1029

EXPIRED METARs :
  • 262320Z AUTO 04011KT 010V070 9999 OVC015/// 14/11 Q1029
  • 262250Z AUTO 04014KT 9999 OVC015/// 15/11 Q1029
  • 262220Z AUTO 04015KT 9999 OVC015/// 15/11 Q1029
  • 262150Z AUTO 05013KT 9999 OVC016/// 15/12 Q1028
  • 262120Z AUTO 03013KT 9999 OVC015/// 16/12 Q1028

Expired Forecast.
ATIS : +44 09063 800 400 (*282)
No reported NOTAMs for that airfield.



MET'MAP, your aeronautical weather chart ! - Copyright ORBIFLY December 2007 - Disclaimer

ORBIFLY MET'MAP TEAM :

Programming & Development : Alexandra Zaïnal
Concept & Development : Baudouin d'Aumeries
Co-Development & Prog : Marc-Olivier Méhu
Technical & hardware support : Manuel Goepfert

Contact : metmap@orbifly.com




SOURCES & CREDITS :

   NOAA